Time;durP1;ratioP1;P1;durP2;ratioP2;P2;SDS_P1;SDS_P2;PMS_P1;PMS_P2;Temp;Humidity;BMP_temperature;BMP_pressure;BME280_temperature;BME280_humidity;BME280_pressure;Samples;Min_cycle;Max_cycle;Signal;HPM_P1;HPM_P2
2022/06/08 00:01:47;;;;;;;2.90;2.50;;;18.20;99.90;;;;;;4979376;28;20503;-66
2022/06/08 00:04:13;;;;;;;4.33;2.80;;;18.10;99.90;;;;;;4979117;28;20490;-66
2022/06/08 00:06:39;;;;;;;4.33;2.87;;;17.90;99.90;;;;;;4977819;28;20460;-66
2022/06/08 00:09:05;;;;;;;4.90;3.00;;;18.10;99.90;;;;;;4978445;28;20436;-66
2022/06/08 00:11:30;;;;;;;4.30;2.73;;;17.90;99.90;;;;;;4980339;28;20295;-66
2022/06/08 00:13:56;;;;;;;5.50;3.27;;;17.80;99.90;;;;;;4982358;28;20214;-66
2022/06/08 00:16:22;;;;;;;4.87;3.17;;;17.80;99.90;;;;;;4977967;28;20442;-66
2022/06/08 00:18:48;;;;;;;4.20;2.70;;;17.70;99.90;;;;;;4986275;28;20197;-66
2022/06/08 00:21:15;;;;;;;4.13;3.10;;;17.60;99.90;;;;;;4981152;28;20214;-66
2022/06/08 00:23:42;;;;;;;5.23;3.40;;;17.60;99.90;;;;;;4976446;28;20197;-66
2022/06/08 00:26:07;;;;;;;5.07;2.90;;;17.60;99.90;;;;;;4983644;28;20463;-66
2022/06/08 00:28:34;;;;;;;4.10;3.30;;;17.50;99.90;;;;;;4982322;28;20445;-66
2022/06/08 00:30:59;;;;;;;4.33;2.80;;;17.60;99.90;;;;;;4978517;28;20194;-66
2022/06/08 00:33:25;;;;;;;8.13;2.70;;;17.50;99.90;;;;;;4980066;28;20519;-65
2022/06/08 00:35:51;;;;;;;4.23;2.67;;;17.50;99.90;;;;;;4979211;28;20212;-65
2022/06/08 00:38:16;;;;;;;5.70;2.97;;;17.60;99.90;;;;;;4979887;28;20186;-65
2022/06/08 00:41:00;;;;;;;4.20;2.90;;;17.60;99.90;;;;;;4979517;28;20185;-65
2022/06/08 00:43:26;;;;;;;3.70;2.90;;;17.70;99.90;;;;;;4980707;28;20608;-65
2022/06/08 00:45:52;;;;;;;4.50;2.67;;;17.70;99.90;;;;;;4979401;28;20452;-66
2022/06/08 00:48:19;;;;;;;5.10;3.43;;;17.60;99.90;;;;;;4983404;28;20206;-65
2022/06/08 00:50:51;;;;;;;6.80;3.70;;;17.60;99.90;;;;;;4982494;28;20475;-67
2022/06/08 00:53:22;;;;;;;6.30;3.20;;;17.50;99.90;;;;;;4982829;28;20499;-66
2022/06/08 00:55:48;;;;;;;3.90;3.20;;;17.50;99.90;;;;;;4977801;28;20472;-65
2022/06/08 00:58:18;;;;;;;5.80;3.20;;;17.50;99.90;;;;;;4976722;28;20564;-65
2022/06/08 01:00:45;;;;;;;4.63;3.00;;;17.40;99.90;;;;;;4981548;28;20197;-65
2022/06/08 01:03:12;;;;;;;3.80;3.20;;;17.40;99.90;;;;;;4960939;28;21300;-65
2022/06/08 01:05:48;;;;;;;4.20;3.03;;;17.40;99.90;;;;;;4982449;28;20989;-65
2022/06/08 01:08:41;;;;;;;7.97;3.60;;;17.40;99.90;;;;;;4981652;28;21131;-65
2022/06/08 01:11:13;;;;;;;6.00;4.03;;;17.40;99.90;;;;;;4978381;28;20476;-64
2022/06/08 01:13:39;;;;;;;5.20;3.30;;;17.20;99.90;;;;;;4978570;28;20518;-65
2022/06/08 01:16:08;;;;;;;7.47;3.20;;;17.10;99.90;;;;;;4979443;28;20551;-65
2022/06/08 01:18:34;;;;;;;8.43;3.47;;;17.00;99.90;;;;;;4978241;28;20436;-64
2022/06/08 01:21:18;;;;;;;6.90;2.80;;;17.10;99.90;;;;;;4977533;28;20452;-65
2022/06/08 01:23:45;;;;;;;4.10;3.07;;;17.20;99.90;;;;;;4982744;28;20444;-65
2022/06/08 01:26:34;;;;;;;5.73;2.63;;;17.20;99.90;;;;;;4982241;28;20468;-65
2022/06/08 01:29:20;;;;;;;9.23;3.20;;;17.20;99.90;;;;;;4983919;28;20856;-65
2022/06/08 01:32:06;;;;;;;5.30;3.47;;;17.30;99.90;;;;;;4984132;28;20882;-65
2022/06/08 01:35:08;;;;;;;3.77;3.20;;;17.20;99.90;;;;;;4980413;28;20492;-66
2022/06/08 01:38:02;;;;;;;5.33;3.27;;;17.40;99.90;;;;;;4980750;28;20544;-65
2022/06/08 01:40:40;;;;;;;3.30;3.00;;;17.20;99.90;;;;;;4974679;28;20788;-65
2022/06/08 01:43:26;;;;;;;4.73;3.63;;;17.20;99.90;;;;;;4983304;28;20951;-65
2022/06/08 01:45:55;;;;;;;5.40;3.37;;;17.00;99.90;;;;;;4980833;28;20523;-65
2022/06/08 01:48:57;;;;;;;4.00;3.20;;;17.00;99.90;;;;;;4978337;28;20449;-66
2022/06/08 01:51:41;;;;;;;3.90;3.50;;;17.00;99.90;;;;;;4982045;28;20436;-65
2022/06/08 01:54:10;;;;;;;4.50;3.73;;;16.90;99.90;;;;;;4981407;28;20977;-65
2022/06/08 01:56:43;;;;;;;3.53;2.97;;;17.00;99.90;;;;;;4979854;28;20845;-65
2022/06/08 01:59:46;;;;;;;4.87;3.50;;;17.10;99.90;;;;;;4985517;28;20516;-65
2022/06/08 02:02:40;;;;;;;5.33;3.43;;;17.10;99.90;;;;;;4984188;28;20432;-65
2022/06/08 02:05:22;;;;;;;7.73;3.47;;;17.20;99.90;;;;;;4981390;28;20466;-66
2022/06/08 02:08:14;;;;;;;6.63;3.40;;;17.20;99.90;;;;;;4978832;28;20439;-65
2022/06/08 02:10:45;;;;;;;7.07;3.77;;;17.10;99.90;;;;;;4981790;28;20476;-66
2022/06/08 02:13:40;;;;;;;4.80;3.30;;;17.00;99.90;;;;;;4980016;28;20456;-65
2022/06/08 02:16:11;;;;;;;4.03;3.47;;;17.00;99.90;;;;;;4979491;28;20468;-65
2022/06/08 02:18:43;;;;;;;7.50;4.03;;;17.00;99.90;;;;;;4980155;28;20507;-66
2022/06/08 02:21:20;;;;;;;6.53;3.20;;;16.90;99.90;;;;;;4977187;28;20468;-65
2022/06/08 02:23:52;;;;;;;5.57;3.10;;;16.80;99.90;;;;;;4981624;28;20444;-65
2022/06/08 02:26:31;;;;;;;6.43;3.50;;;16.70;99.90;;;;;;4980000;28;20519;-65
2022/06/08 02:29:02;;;;;;;8.43;3.67;;;16.70;99.90;;;;;;4986218;28;20449;-65
2022/06/08 02:31:42;;;;;;;4.50;3.43;;;16.70;99.90;;;;;;4980612;28;20824;-65
2022/06/08 02:34:28;;;;;;;11.73;3.40;;;16.70;99.90;;;;;;4985618;28;20500;-65
2022/06/08 02:37:00;;;;;;;4.50;3.30;;;16.60;99.90;;;;;;4987624;28;20820;-65
2022/06/08 02:39:32;;;;;;;7.03;3.83;;;16.50;99.90;;;;;;4982884;28;20485;-65
2022/06/08 02:42:21;;;;;;;7.23;3.47;;;16.60;99.90;;;;;;4983962;28;20534;-65
2022/06/08 02:44:51;;;;;;;6.43;3.00;;;16.70;99.90;;;;;;4982717;28;21204;-65
2022/06/08 02:47:29;;;;;;;6.03;3.40;;;16.70;99.90;;;;;;4982060;28;20564;-65
2022/06/08 02:49:54;;;;;;;3.40;3.10;;;16.80;99.90;;;;;;4981672;28;20519;-65
2022/06/08 02:52:24;;;;;;;4.17;3.07;;;16.80;99.90;;;;;;4983170;28;20437;-65
2022/06/08 02:54:50;;;;;;;5.67;3.80;;;16.80;99.90;;;;;;4980328;28;20241;-65
2022/06/08 02:57:47;;;;;;;3.67;2.90;;;16.90;99.90;;;;;;4983837;28;20996;-65
2022/06/08 03:00:30;;;;;;;4.03;2.87;;;16.90;99.90;;;;;;4980556;28;20464;-66
2022/06/08 03:03:08;;;;;;;4.17;2.70;;;16.80;99.90;;;;;;4981715;28;20895;-66
2022/06/08 03:05:41;;;;;;;4.23;3.60;;;16.80;99.90;;;;;;4983797;28;20843;-66
2022/06/08 03:08:20;;;;;;;5.40;3.40;;;16.80;99.90;;;;;;4980413;28;20436;-66
2022/06/08 03:10:48;;;;;;;4.83;2.93;;;16.80;99.90;;;;;;4981776;28;20446;-66
2022/06/08 03:13:28;;;;;;;3.93;2.97;;;16.80;99.90;;;;;;4980597;28;20807;-66
2022/06/08 03:16:00;;;;;;;5.40;2.97;;;16.80;99.90;;;;;;4964028;28;20573;-66
2022/06/08 03:18:26;;;;;;;8.50;4.07;;;16.70;99.90;;;;;;4978545;28;20989;-66
2022/06/08 03:20:54;;;;;;;2.97;2.67;;;16.70;99.90;;;;;;4965615;28;20938;-65
2022/06/08 03:23:20;;;;;;;4.70;3.00;;;16.70;99.90;;;;;;4980369;28;20433;-66
2022/06/08 03:25:47;;;;;;;3.23;2.67;;;16.70;99.90;;;;;;4964192;28;20484;-65
2022/06/08 03:28:14;;;;;;;5.90;2.97;;;16.70;99.90;;;;;;4983127;28;20429;-65
2022/06/08 03:30:41;;;;;;;6.53;3.23;;;16.60;99.90;;;;;;4983356;28;20435;-66
2022/06/08 03:33:08;;;;;;;4.60;3.50;;;16.50;99.90;;;;;;4977341;28;20458;-65
2022/06/08 03:35:34;;;;;;;5.73;2.97;;;16.60;99.90;;;;;;4981590;28;20825;-65
2022/06/08 03:38:00;;;;;;;4.67;2.80;;;16.50;99.90;;;;;;4980012;28;20436;-66
2022/06/08 03:40:29;;;;;;;3.83;2.87;;;16.40;99.90;;;;;;4983128;28;20443;-66
2022/06/08 03:42:55;;;;;;;5.30;3.30;;;16.40;99.90;;;;;;4980576;28;20827;-66
2022/06/08 03:45:21;;;;;;;3.90;3.10;;;16.50;99.90;;;;;;4985057;28;20453;-65
2022/06/08 03:47:50;;;;;;;3.80;3.20;;;16.50;99.90;;;;;;4985981;28;20432;-66
2022/06/08 03:50:21;;;;;;;4.87;2.93;;;16.60;99.90;;;;;;4979261;28;20193;-66
2022/06/08 03:53:09;;;;;;;3.43;3.13;;;16.70;99.90;;;;;;4982022;28;20480;-66
2022/06/08 03:55:35;;;;;;;5.40;3.10;;;16.70;99.90;;;;;;4978095;28;21732;-65
2022/06/08 03:58:02;;;;;;;4.50;3.20;;;16.60;99.90;;;;;;4979845;28;20900;-66
2022/06/08 04:00:29;;;;;;;10.47;3.30;;;16.40;99.90;;;;;;4984196;28;20463;-65
2022/06/08 04:02:55;;;;;;;3.67;3.33;;;16.40;99.90;;;;;;4983792;28;20480;-65
2022/06/08 04:05:21;;;;;;;5.90;3.50;;;16.20;99.90;;;;;;4981154;28;21955;-65
2022/06/08 04:07:47;;;;;;;4.30;3.00;;;16.30;99.90;;;;;;4982803;28;20511;-65
2022/06/08 04:10:13;;;;;;;3.90;3.50;;;16.20;99.90;;;;;;4979537;28;20182;-65
2022/06/08 04:12:39;;;;;;;4.60;3.20;;;16.20;99.90;;;;;;4980302;28;20523;-65
2022/06/08 04:15:06;;;;;;;3.63;2.77;;;16.30;99.90;;;;;;4983787;28;20805;-66
2022/06/08 04:17:32;;;;;;;3.53;3.10;;;16.40;99.90;;;;;;4981931;28;20460;-65
2022/06/08 04:19:58;;;;;;;4.90;2.87;;;16.40;99.90;;;;;;4982080;28;20463;-65
2022/06/08 04:22:30;;;;;;;6.53;3.10;;;16.40;99.90;;;;;;4979549;28;20277;-66
2022/06/08 04:24:56;;;;;;;3.60;3.10;;;16.40;99.90;;;;;;4975893;28;20928;-65
2022/06/08 04:27:22;;;;;;;6.67;3.10;;;16.40;99.90;;;;;;4981467;28;20457;-66
2022/06/08 04:29:48;;;;;;;5.70;3.03;;;16.40;99.90;;;;;;4982195;28;20534;-66
2022/06/08 04:32:14;;;;;;;6.17;3.27;;;16.40;99.90;;;;;;4980106;28;20604;-66
2022/06/08 04:34:41;;;;;;;3.90;2.70;;;16.40;99.90;;;;;;4979036;28;20476;-65
2022/06/08 04:37:07;;;;;;;3.90;2.70;;;16.40;99.90;;;;;;4977127;28;20232;-66
2022/06/08 04:39:33;;;;;;;6.73;3.27;;;16.40;99.90;;;;;;4964353;28;20468;-66
2022/06/08 04:41:59;;;;;;;4.63;3.07;;;16.40;99.90;;;;;;4978523;28;20868;-66
2022/06/08 04:44:25;;;;;;;3.33;3.03;;;16.40;99.90;;;;;;4978905;28;20201;-66
2022/06/08 04:46:51;;;;;;;4.83;3.23;;;16.50;99.90;;;;;;4975879;28;20836;-66
2022/06/08 04:49:17;;;;;;;3.83;2.80;;;16.40;99.90;;;;;;4980299;28;20503;-66
2022/06/08 04:51:43;;;;;;;5.33;2.80;;;16.60;99.90;;;;;;4974684;28;20448;-66
2022/06/08 04:54:08;;;;;;;5.43;3.17;;;16.40;99.90;;;;;;4978611;28;20229;-66
2022/06/08 04:56:34;;;;;;;6.90;3.27;;;16.40;99.90;;;;;;4977285;28;20476;-66
2022/06/08 04:59:01;;;;;;;6.70;4.10;;;16.50;99.90;;;;;;4979457;28;20665;-66
2022/06/08 05:01:27;;;;;;;4.70;3.50;;;16.40;99.90;;;;;;4982399;28;20647;-66
2022/06/08 05:03:53;;;;;;;5.03;3.33;;;16.50;99.90;;;;;;4983376;28;20477;-66
2022/06/08 05:06:19;;;;;;;3.57;2.90;;;16.50;99.90;;;;;;4985876;28;20523;-65
2022/06/08 05:08:49;;;;;;;3.70;2.97;;;16.40;99.90;;;;;;4981638;28;20436;-65
2022/06/08 05:11:15;;;;;;;6.73;3.00;;;16.50;99.90;;;;;;4979418;28;20225;-65
2022/06/08 05:13:41;;;;;;;10.13;3.80;;;16.60;99.90;;;;;;4982558;28;20442;-66
2022/06/08 05:16:07;;;;;;;4.87;2.90;;;16.50;99.90;;;;;;4983991;28;21011;-67
2022/06/08 05:18:33;;;;;;;4.70;3.00;;;16.50;99.90;;;;;;4981898;28;20186;-66
2022/06/08 05:20:59;;;;;;;5.57;2.97;;;16.50;99.90;;;;;;4984536;28;20922;-66
2022/06/08 05:23:32;;;;;;;8.00;3.30;;;16.60;99.90;;;;;;4986432;28;20437;-66
2022/06/08 05:25:58;;;;;;;5.63;2.67;;;16.80;99.90;;;;;;4984155;28;20473;-66
2022/06/08 05:28:24;;;;;;;4.37;3.60;;;17.00;99.90;;;;;;4983319;28;20448;-66
2022/06/08 05:30:50;;;;;;;3.90;3.07;;;17.10;99.90;;;;;;4986586;28;20181;-64
2022/06/08 05:33:16;;;;;;;4.53;3.43;;;17.10;99.90;;;;;;4982600;28;20551;-64
2022/06/08 05:35:44;;;;;;;4.90;3.23;;;17.20;99.90;;;;;;4981079;28;20488;-64
2022/06/08 05:38:10;;;;;;;5.67;3.20;;;17.10;99.90;;;;;;4982612;28;20496;-64
2022/06/08 05:40:37;;;;;;;9.03;3.07;;;17.10;99.90;;;;;;4981346;28;20821;-64
2022/06/08 05:43:04;;;;;;;4.70;3.17;;;17.10;99.90;;;;;;4980723;28;20436;-64
2022/06/08 05:45:31;;;;;;;5.40;2.93;;;17.10;99.90;;;;;;4983890;28;20484;-64
2022/06/08 05:48:01;;;;;;;10.20;3.43;;;17.10;99.90;;;;;;4986452;28;20433;-63
2022/06/08 05:50:28;;;;;;;6.07;3.07;;;17.20;99.90;;;;;;4982426;28;20452;-64
2022/06/08 05:52:53;;;;;;;8.13;3.00;;;17.30;99.90;;;;;;4981122;28;20997;-63
2022/06/08 05:55:21;;;;;;;4.77;3.40;;;17.30;99.90;;;;;;4982675;28;20485;-64
2022/06/08 05:57:47;;;;;;;6.00;2.97;;;17.20;99.90;;;;;;4978244;28;20467;-64
2022/06/08 06:00:16;;;;;;;4.43;3.33;;;17.20;99.90;;;;;;4980179;28;20453;-64
2022/06/08 06:02:42;;;;;;;6.13;2.90;;;17.30;99.90;;;;;;4979180;28;20756;-64
2022/06/08 06:05:09;;;;;;;2.50;2.30;;;17.40;99.90;;;;;;4979970;28;20476;-64
2022/06/08 06:07:36;;;;;;;7.07;3.67;;;17.50;99.90;;;;;;4979637;28;20491;-64
2022/06/08 06:10:03;;;;;;;5.40;3.10;;;17.60;99.90;;;;;;4981131;28;21092;-64
2022/06/08 06:12:32;;;;;;;3.80;2.80;;;17.80;99.90;;;;;;4982014;28;20847;-64
2022/06/08 06:15:01;;;;;;;3.07;2.60;;;17.80;99.90;;;;;;4982910;28;20515;-65
2022/06/08 06:17:27;;;;;;;8.67;3.37;;;17.90;99.90;;;;;;4986526;28;20461;-65
2022/06/08 06:19:52;;;;;;;5.33;3.00;;;17.90;99.90;;;;;;4982085;28;20441;-65
2022/06/08 06:22:18;;;;;;;5.57;2.80;;;17.90;99.90;;;;;;4982076;28;20458;-65
2022/06/08 06:24:44;;;;;;;4.57;3.00;;;18.10;99.90;;;;;;4980349;28;20224;-64
2022/06/08 06:27:12;;;;;;;4.20;2.90;;;18.20;99.90;;;;;;4980071;28;20206;-65
2022/06/08 06:29:37;;;;;;;3.90;2.73;;;18.20;99.90;;;;;;4980485;28;20193;-64
2022/06/08 06:32:07;;;;;;;4.70;2.63;;;18.30;99.90;;;;;;4978986;28;21324;-64
2022/06/08 06:34:33;;;;;;;8.77;3.20;;;18.20;99.90;;;;;;4981482;28;20217;-65
2022/06/08 06:36:59;;;;;;;4.80;2.90;;;18.30;99.90;;;;;;4973932;28;20834;-65
2022/06/08 06:39:26;;;;;;;4.67;2.83;;;18.30;99.90;;;;;;4978512;28;22322;-65
2022/06/08 06:41:53;;;;;;;4.30;2.67;;;18.50;99.90;;;;;;4976575;28;20568;-64
2022/06/08 06:44:19;;;;;;;7.47;2.60;;;18.60;99.90;;;;;;4980329;28;20450;-65
2022/06/08 06:46:45;;;;;;;3.80;2.50;;;18.60;99.90;;;;;;4979917;28;20463;-64
2022/06/08 06:49:11;;;;;;;4.50;2.83;;;18.60;99.90;;;;;;4974922;28;20490;-63
2022/06/08 06:51:37;;;;;;;5.60;2.70;;;18.80;99.90;;;;;;4981357;28;20204;-63
2022/06/08 06:54:04;;;;;;;5.83;3.10;;;18.80;99.90;;;;;;4981044;28;20464;-64
2022/06/08 06:56:30;;;;;;;4.07;2.70;;;18.70;99.90;;;;;;4977385;28;20275;-63
2022/06/08 06:58:56;;;;;;;7.73;2.67;;;18.80;99.90;;;;;;4976169;28;20437;-64
2022/06/08 07:01:21;;;;;;;4.87;3.17;;;19.00;99.90;;;;;;4976907;28;20523;-65
2022/06/08 07:03:49;;;;;;;6.90;3.00;;;19.00;99.90;;;;;;4977553;28;20609;-63
2022/06/08 07:06:15;;;;;;;5.70;3.03;;;19.10;99.90;;;;;;4979199;28;20230;-63
2022/06/08 07:08:41;;;;;;;5.73;3.17;;;19.10;99.90;;;;;;4975975;28;20950;-63
2022/06/08 07:13:55;;;;;;;5.57;2.40;;;19.20;99.90;;;;;;4979312;28;20295;-62
2022/06/08 07:16:21;;;;;;;5.07;3.33;;;19.30;99.90;;;;;;4976125;28;20564;-62
2022/06/08 07:18:47;;;;;;;3.80;2.70;;;19.40;99.90;;;;;;4979187;28;20186;-62
2022/06/08 07:21:12;;;;;;;3.10;2.07;;;19.40;99.90;;;;;;4977956;28;20572;-63
2022/06/08 07:23:38;;;;;;;4.33;2.50;;;19.40;99.90;;;;;;4975495;28;20673;-62
2022/06/08 07:26:04;;;;;;;3.13;2.83;;;19.50;99.90;;;;;;4976613;28;20214;-63
2022/06/08 07:28:30;;;;;;;5.33;3.27;;;19.60;99.90;;;;;;4977575;28;20261;-63
2022/06/08 07:30:56;;;;;;;4.57;3.00;;;19.80;99.90;;;;;;4961501;28;20221;-63
2022/06/08 07:33:22;;;;;;;5.40;2.57;;;19.80;99.90;;;;;;4976570;28;20536;-62
2022/06/08 07:35:48;;;;;;;4.70;2.87;;;19.90;99.90;;;;;;4976424;28;22965;-63
2022/06/08 07:38:13;;;;;;;4.07;2.53;;;20.00;99.90;;;;;;4977140;28;20940;-62
2022/06/08 07:40:39;;;;;;;5.37;2.73;;;20.00;99.90;;;;;;4976247;28;20614;-62
2022/06/08 07:43:05;;;;;;;12.80;2.90;;;20.10;99.90;;;;;;4980736;28;20209;-63
2022/06/08 07:45:31;;;;;;;5.70;2.30;;;20.10;99.90;;;;;;4979393;28;20291;-63
2022/06/08 07:50:42;;;;;;;3.40;2.47;;;20.30;99.90;;;;;;4977054;28;20607;-62
2022/06/08 07:53:08;;;;;;;4.60;2.63;;;20.40;99.90;;;;;;4973300;28;20446;-62
2022/06/08 07:55:34;;;;;;;4.50;2.67;;;20.50;99.90;;;;;;4979746;28;20571;-63
2022/06/08 07:57:59;;;;;;;3.10;2.30;;;20.50;99.90;;;;;;4980898;28;21144;-65
2022/06/08 08:00:26;;;;;;;5.40;2.47;;;20.50;99.90;;;;;;4979232;28;20236;-64
2022/06/08 08:02:52;;;;;;;3.30;2.23;;;20.70;99.90;;;;;;4972702;28;20240;-63
2022/06/08 08:05:19;;;;;;;5.43;2.87;;;20.70;99.90;;;;;;4970035;28;20887;-63
2022/06/08 08:07:45;;;;;;;5.23;2.30;;;20.90;99.90;;;;;;4970630;28;20507;-64
2022/06/08 08:10:18;;;;;;;6.20;2.50;;;21.10;99.90;;;;;;4971761;28;20445;-63
2022/06/08 08:12:46;;;;;;;4.63;2.60;;;21.10;99.90;;;;;;4978650;28;20443;-64
2022/06/08 08:15:12;;;;;;;4.13;2.40;;;21.10;99.90;;;;;;4978459;28;20917;-63
2022/06/08 08:17:38;;;;;;;4.47;2.40;;;21.20;99.90;;;;;;4979043;28;20552;-63
2022/06/08 08:20:05;;;;;;;9.13;3.70;;;21.20;99.90;;;;;;4980993;28;20848;-63
2022/06/08 08:22:31;;;;;;;4.83;2.33;;;21.10;99.90;;;;;;4976395;28;20814;-63
2022/06/08 08:24:56;;;;;;;5.03;2.47;;;21.10;99.90;;;;;;4973125;28;20446;-64
2022/06/08 08:27:25;;;;;;;6.57;4.03;;;21.20;99.90;;;;;;4975636;28;20186;-64
2022/06/08 08:29:51;;;;;;;4.53;2.60;;;21.20;99.90;;;;;;4974585;28;20197;-64
2022/06/08 08:32:17;;;;;;;4.00;2.57;;;21.20;99.90;;;;;;4979177;28;20437;-63
2022/06/08 08:34:42;;;;;;;7.37;2.80;;;21.30;99.90;;;;;;4979898;28;22018;-63
2022/06/08 08:37:09;;;;;;;3.77;2.40;;;21.20;99.90;;;;;;4960231;28;20507;-66
2022/06/08 08:39:35;;;;;;;6.73;2.50;;;21.30;99.90;;;;;;4979562;28;20188;-63
2022/06/08 08:44:47;;;;;;;5.83;2.10;;;21.40;99.90;;;;;;4975753;28;20491;-64
2022/06/08 08:47:40;;;;;;;4.13;2.50;;;21.60;99.90;;;;;;4977517;28;20663;-63
2022/06/08 08:50:23;;;;;;;7.40;2.30;;;21.80;99.90;;;;;;4975101;28;20453;-63
2022/06/08 08:53:07;;;;;;;9.13;2.77;;;21.90;99.90;;;;;;4972719;28;20531;-63
2022/06/08 08:55:43;;;;;;;4.73;2.67;;;21.90;99.90;;;;;;4975369;28;20863;-63
2022/06/08 08:58:17;;;;;;;3.57;2.43;;;22.00;99.90;;;;;;4976854;28;20798;-64
2022/06/08 09:00:52;;;;;;;2.73;2.10;;;22.00;99.90;;;;;;4974609;28;20480;-64
2022/06/08 09:03:47;;;;;;;4.30;3.70;;;22.20;99.90;;;;;;4974780;28;20440;-63
2022/06/08 09:06:19;;;;;;;6.70;2.40;;;22.30;99.90;;;;;;4971708;28;20974;-63
2022/06/08 09:08:48;;;;;;;3.43;2.40;;;22.40;99.90;;;;;;4973310;28;20444;-63
2022/06/08 09:11:26;;;;;;;5.90;2.47;;;22.40;99.90;;;;;;4974506;28;20575;-62
2022/06/08 09:14:05;;;;;;;6.77;2.50;;;22.40;99.90;;;;;;4978066;28;20849;-63
2022/06/08 09:16:42;;;;;;;3.40;2.70;;;22.30;99.90;;;;;;4977498;28;20457;-63
2022/06/08 09:19:37;;;;;;;7.67;2.50;;;22.30;99.90;;;;;;4974312;28;20447;-63
2022/06/08 09:22:03;;;;;;;3.27;2.10;;;22.40;99.90;;;;;;4954065;28;20464;-63
2022/06/08 09:24:37;;;;;;;3.60;2.30;;;22.40;99.90;;;;;;4976087;28;20931;-63
2022/06/08 09:27:33;;;;;;;3.67;2.57;;;22.40;99.90;;;;;;4978464;28;20212;-63
2022/06/08 09:29:59;;;;;;;4.27;2.47;;;22.50;99.90;;;;;;4973957;28;20455;-64
2022/06/08 09:32:40;;;;;;;4.93;3.20;;;22.50;99.90;;;;;;4978816;28;20436;-63
2022/06/08 09:35:28;;;;;;;3.10;2.13;;;22.60;99.90;;;;;;4974933;28;20312;-64
2022/06/08 09:38:02;;;;;;;4.40;2.53;;;22.60;99.90;;;;;;4966591;28;20441;-64
2022/06/08 09:41:06;;;;;;;7.30;2.90;;;22.70;99.90;;;;;;4978185;28;20445;-62
2022/06/08 09:44:15;;;;;;;4.97;2.60;;;22.70;99.90;;;;;;4971638;28;20754;-63
2022/06/08 09:53:25;;;;;;;4.33;2.40;;;23.00;99.90;;;;;;4979061;28;20483;-63
2022/06/08 11:16:08;;;;;;;3.43;2.30;;;24.70;94.50;;;;;;5002384;28;20549;-67
2022/06/08 11:18:36;;;;;;;3.77;2.40;;;24.70;94.10;;;;;;5002277;28;20782;-71
2022/06/08 11:21:28;;;;;;;2.97;2.10;;;24.70;93.30;;;;;;5003201;28;20952;-69
2022/06/08 11:23:56;;;;;;;2.27;2.07;;;24.70;93.20;;;;;;4979517;28;20444;-69
2022/06/08 11:26:28;;;;;;;3.43;2.50;;;24.70;93.20;;;;;;5003214;28;20444;-69
2022/06/08 11:29:22;;;;;;;4.10;1.97;;;24.80;92.30;;;;;;5005572;28;20507;-69
2022/06/08 11:31:54;;;;;;;3.80;2.30;;;24.80;91.60;;;;;;5002623;28;20460;-67
2022/06/08 11:34:20;;;;;;;5.57;2.63;;;25.00;91.90;;;;;;5003757;28;20541;-68
2022/06/08 11:37:07;;;;;;;2.57;2.20;;;25.50;90.70;;;;;;5004221;28;20455;-67
2022/06/08 11:39:59;;;;;;;3.97;2.30;;;25.50;90.20;;;;;;5002503;28;20189;-68
2022/06/08 11:42:32;;;;;;;4.07;2.80;;;25.30;90.70;;;;;;5005853;28;20921;-67
2022/06/08 11:45:07;;;;;;;6.20;2.30;;;25.50;91.30;;;;;;5006597;28;20432;-68
2022/06/08 11:47:49;;;;;;;3.80;2.03;;;25.80;91.70;;;;;;5006093;28;20427;-67
2022/06/08 11:50:20;;;;;;;3.10;1.80;;;26.10;87.90;;;;;;5004482;28;20451;-67
2022/06/08 11:52:55;;;;;;;3.73;2.47;;;26.30;80.90;;;;;;5003691;28;20482;-67
2022/06/08 11:55:24;;;;;;;4.00;2.20;;;26.50;82.80;;;;;;5002507;28;20477;-67
2022/06/08 11:57:59;;;;;;;4.80;2.47;;;26.40;81.10;;;;;;5005421;28;20432;-67
2022/06/08 12:00:53;;;;;;;3.30;2.43;;;26.20;78.70;;;;;;5005756;28;20490;-66
2022/06/08 12:03:21;;;;;;;8.80;2.40;;;26.00;78.60;;;;;;4985020;28;20456;-68
2022/06/08 12:05:59;;;;;;;2.20;1.90;;;26.00;77.80;;;;;;5005059;28;20425;-68
2022/06/08 12:08:34;;;;;;;5.60;2.53;;;26.00;77.10;;;;;;5002075;28;20443;-68
2022/06/08 12:11:02;;;;;;;4.10;2.20;;;25.80;78.10;;;;;;4999687;28;20447;-67
2022/06/08 12:13:28;;;;;;;3.97;2.40;;;25.90;78.60;;;;;;5004997;28;20452;-67
2022/06/08 12:15:57;;;;;;;3.43;2.20;;;25.70;79.10;;;;;;5005186;28;20475;-67
2022/06/08 12:18:25;;;;;;;6.73;2.47;;;25.60;80.20;;;;;;5006092;28;20185;-67
2022/06/08 12:21:31;;;;;;;4.43;2.60;;;25.60;81.20;;;;;;5003863;28;20486;-68
2022/06/08 12:23:59;;;;;;;4.20;2.17;;;25.40;85.70;;;;;;4951796;28;20448;-67
2022/06/08 12:26:27;;;;;;;2.97;2.00;;;25.20;83.50;;;;;;5005760;28;20435;-67
2022/06/08 12:29:22;;;;;;;3.57;2.63;;;25.20;81.60;;;;;;5005087;28;21498;-67
2022/06/08 12:31:59;;;;;;;5.93;2.20;;;25.20;85.90;;;;;;4979238;28;20472;-67
2022/06/08 12:34:34;;;;;;;4.87;2.10;;;25.20;86.10;;;;;;5003653;28;20468;-66
2022/06/08 12:37:25;;;;;;;2.80;1.93;;;25.10;86.10;;;;;;4982759;28;20453;-68
2022/06/08 12:39:52;;;;;;;2.87;2.07;;;25.10;85.10;;;;;;4999160;28;20439;-69
2022/06/08 12:42:34;;;;;;;4.40;2.07;;;25.10;80.50;;;;;;5002878;28;20459;-68
2022/06/08 12:45:00;;;;;;;3.40;2.00;;;25.30;78.80;;;;;;5004958;28;20486;-68
2022/06/08 12:47:30;;;;;;;5.50;2.50;;;25.40;77.10;;;;;;5006560;28;20432;-68
2022/06/08 12:49:59;;;;;;;3.10;2.40;;;25.30;77.60;;;;;;4999024;28;20443;-68
2022/06/08 12:52:32;;;;;;;5.83;3.77;;;25.30;77.20;;;;;;5001044;28;20602;-69
2022/06/08 12:54:59;;;;;;;5.07;4.00;;;25.50;78.60;;;;;;5001224;28;20563;-68
2022/06/08 12:57:28;;;;;;;2.20;2.00;;;25.50;77.90;;;;;;5002645;28;20447;-69
2022/06/08 12:59:58;;;;;;;3.50;1.87;;;25.50;77.60;;;;;;5003253;28;20448;-69
2022/06/08 13:02:35;;;;;;;3.70;2.20;;;25.40;77.30;;;;;;5004334;28;20931;-69
2022/06/08 13:05:04;;;;;;;4.50;2.33;;;25.40;77.60;;;;;;5001853;28;20765;-68
2022/06/08 13:07:33;;;;;;;3.80;2.10;;;25.30;76.30;;;;;;5003414;28;20483;-69
2022/06/08 13:09:59;;;;;;;3.60;2.10;;;25.10;76.30;;;;;;4999654;28;20505;-70
2022/06/08 13:12:31;;;;;;;2.33;1.87;;;25.20;77.30;;;;;;5000811;28;20467;-70
2022/06/08 13:14:56;;;;;;;6.20;2.70;;;25.00;76.80;;;;;;4993102;28;20468;-71
2022/06/08 13:17:24;;;;;;;4.33;2.47;;;24.90;78.20;;;;;;4998495;28;20463;-68
2022/06/08 13:19:50;;;;;;;4.00;2.30;;;24.70;77.90;;;;;;4999232;28;20200;-71
2022/06/08 13:22:16;;;;;;;4.67;2.20;;;24.70;78.40;;;;;;4996834;28;20983;-73
2022/06/08 13:24:42;;;;;;;4.20;2.20;;;24.70;79.10;;;;;;5004009;28;20192;-70
2022/06/08 13:27:14;;;;;;;3.40;2.37;;;24.60;79.90;;;;;;5000510;28;20641;-72
2022/06/08 13:29:39;;;;;;;4.07;2.40;;;24.40;80.60;;;;;;5000611;28;20221;-70
2022/06/08 13:32:14;;;;;;;3.50;2.20;;;24.30;81.90;;;;;;4985328;28;20483;-68
2022/06/08 13:34:39;;;;;;;4.93;2.40;;;24.20;83.50;;;;;;4996294;28;20247;-67
2022/06/08 13:37:19;;;;;;;3.90;2.23;;;24.10;85.30;;;;;;5002428;28;20439;-67
2022/06/08 13:39:44;;;;;;;3.23;2.10;;;24.10;86.50;;;;;;4996709;28;20192;-69
2022/06/08 13:42:14;;;;;;;6.00;2.30;;;24.00;87.60;;;;;;5002223;28;20936;-69
2022/06/08 13:44:44;;;;;;;4.90;2.30;;;23.80;88.70;;;;;;5002969;28;20201;-69
2022/06/08 13:47:19;;;;;;;3.23;2.50;;;23.70;90.80;;;;;;5004051;28;20442;-70
2022/06/08 13:49:55;;;;;;;5.27;2.30;;;23.70;91.40;;;;;;5000007;28;20984;-69
2022/06/08 13:52:25;;;;;;;6.97;2.63;;;23.50;92.00;;;;;;5004972;28;20978;-69
2022/06/08 13:54:54;;;;;;;2.87;2.30;;;23.30;92.00;;;;;;5001207;28;20576;-67
2022/06/08 13:57:23;;;;;;;5.30;2.20;;;23.30;92.10;;;;;;4999760;28;20436;-69
2022/06/08 13:59:49;;;;;;;5.47;2.37;;;23.20;92.90;;;;;;4999001;28;21090;-72
2022/06/08 14:02:25;;;;;;;6.70;3.43;;;23.20;93.10;;;;;;5004007;28;20452;-71
2022/06/08 14:04:56;;;;;;;3.93;2.80;;;23.20;93.70;;;;;;5003450;28;20193;-71
2022/06/08 14:13:24;;;;;;;4.03;2.60;;;22.50;99.90;;;;;;4998767;28;20604;-69
2022/06/08 14:15:53;;;;;;;8.07;3.17;;;22.20;99.90;;;;;;4975589;28;20519;-69
2022/06/08 14:18:36;;;;;;;5.33;2.60;;;22.10;99.90;;;;;;5001817;28;20440;-69
2022/06/08 14:21:02;;;;;;;9.23;3.07;;;22.20;99.90;;;;;;5003432;28;20435;-68
2022/06/08 14:23:28;;;;;;;5.67;2.97;;;22.10;99.90;;;;;;5003307;28;20798;-68
2022/06/08 14:25:55;;;;;;;8.53;2.97;;;22.30;99.90;;;;;;5004026;28;20448;-67
2022/06/08 14:28:21;;;;;;;6.83;2.57;;;22.00;99.90;;;;;;5003875;28;20443;-68
2022/06/08 14:30:48;;;;;;;3.90;2.33;;;21.90;99.90;;;;;;5002536;28;21074;-68
2022/06/08 14:33:28;;;;;;;4.33;2.30;;;21.40;99.90;;;;;;4980631;28;20475;-68
2022/06/08 14:35:55;;;;;;;4.20;2.40;;;20.70;99.90;;;;;;5003700;28;20516;-68
2022/06/08 14:38:33;;;;;;;6.03;2.67;;;20.40;99.90;;;;;;5003440;28;20436;-69
2022/06/08 14:41:00;;;;;;;3.70;2.27;;;20.00;99.90;;;;;;5002045;28;20440;-69
2022/06/08 14:43:27;;;;;;;5.70;2.70;;;19.80;99.90;;;;;;5002070;28;20515;-71
2022/06/08 14:45:53;;;;;;;5.67;2.70;;;19.80;99.90;;;;;;5005173;28;20447;-69
2022/06/08 14:48:25;;;;;;;6.60;2.80;;;19.90;99.90;;;;;;5000113;28;20856;-70